createdAt,value
2022-10-19T00:05:11.910Z,101330.28
2022-10-19T00:15:13.250Z,101323.25
2022-10-19T00:25:14.590Z,101324.97
2022-10-19T00:35:16.154Z,101332.88
2022-10-19T00:45:17.492Z,101333.91
2022-10-19T00:55:18.817Z,101343.47
2022-10-19T01:05:20.139Z,101321.63
2022-10-19T01:15:21.504Z,101310.25
2022-10-19T01:25:22.886Z,101313.72
2022-10-19T01:35:26.075Z,101305.00
2022-10-19T01:45:27.419Z,101301.50
2022-10-19T01:55:28.782Z,101278.69
2022-10-19T02:05:30.161Z,101279.47
2022-10-19T02:15:31.518Z,101283.03
2022-10-19T02:25:32.924Z,101274.22
2022-10-19T02:35:34.428Z,101264.50
2022-10-19T02:45:35.888Z,101240.09
2022-10-19T02:55:37.243Z,101233.78
2022-10-19T03:05:38.626Z,101226.00
2022-10-19T03:15:39.958Z,101232.16
2022-10-19T03:25:41.283Z,101233.28
2022-10-19T03:35:42.791Z,101237.94
2022-10-19T03:45:44.203Z,101229.19
2022-10-19T03:55:45.537Z,101224.50
2022-10-19T04:05:46.828Z,101236.72
2022-10-19T04:15:48.161Z,101237.66
2022-10-19T04:25:49.499Z,101235.91
2022-10-19T04:35:50.845Z,101231.75
2022-10-19T04:45:52.160Z,101249.38
2022-10-19T04:55:53.509Z,101239.03
2022-10-19T05:05:54.862Z,101239.25
2022-10-19T05:15:56.359Z,101232.34
2022-10-19T05:25:57.678Z,101233.31
2022-10-19T05:35:59.253Z,101235.28
2022-10-19T05:46:00.623Z,101224.81
2022-10-19T05:56:02.099Z,101226.69
2022-10-19T06:06:03.483Z,101218.06
2022-10-19T06:16:04.810Z,101223.16
2022-10-19T06:26:06.268Z,101231.69
2022-10-19T06:36:07.694Z,101225.53
2022-10-19T06:46:09.089Z,101242.00
2022-10-19T06:56:10.421Z,101248.00
2022-10-19T07:06:11.730Z,101244.56
2022-10-19T07:16:16.175Z,101242.69
2022-10-19T07:26:23.207Z,101251.28
2022-10-19T07:36:24.664Z,101244.09
2022-10-19T07:46:26.398Z,101256.47
2022-10-19T07:56:27.705Z,101245.94
2022-10-19T08:06:29.168Z,101248.56
2022-10-19T08:16:32.772Z,101252.97
2022-10-19T08:26:34.265Z,101246.00
2022-10-19T08:36:35.959Z,101248.72
2022-10-19T08:46:37.325Z,101248.59
2022-10-19T08:56:50.479Z,101238.13
2022-10-19T09:06:53.009Z,101236.22
2022-10-19T09:16:54.481Z,101236.97
2022-10-19T09:26:55.858Z,101229.22
2022-10-19T09:36:57.521Z,101231.63
2022-10-19T09:46:59.039Z,101226.84
2022-10-19T09:57:00.469Z,101211.72
2022-10-19T10:07:01.815Z,101210.72
2022-10-19T10:17:03.385Z,101212.44
2022-10-19T10:27:04.880Z,101197.22
2022-10-19T10:37:06.204Z,101188.91
2022-10-19T10:47:09.296Z,101183.06
2022-10-19T10:57:12.709Z,101178.28
2022-10-19T11:07:14.285Z,101167.94
2022-10-19T11:17:15.632Z,101144.22
2022-10-19T11:27:16.921Z,101127.78
2022-10-19T11:37:18.319Z,101122.63
2022-10-19T11:47:19.632Z,101123.22
2022-10-19T11:57:20.946Z,101128.50
2022-10-19T12:07:22.255Z,101109.88
2022-10-19T12:17:23.611Z,101102.66
2022-10-19T12:27:25.032Z,101084.06
2022-10-19T12:37:27.083Z,101056.06
2022-10-19T12:47:28.317Z,101035.28
2022-10-19T12:57:29.556Z,101037.56
2022-10-19T13:07:30.795Z,101008.94
2022-10-19T13:17:34.051Z,100992.66
2022-10-19T13:27:36.118Z,100986.44
2022-10-19T13:37:37.637Z,100958.56
2022-10-19T13:47:39.159Z,100955.25
2022-10-19T13:57:40.497Z,100941.66
2022-10-19T14:07:41.828Z,100938.06
2022-10-19T14:17:43.187Z,100938.38
2022-10-19T14:27:44.650Z,100926.25
2022-10-19T14:37:46.020Z,100924.38
2022-10-19T14:47:47.377Z,100916.88
2022-10-19T14:57:49.134Z,100917.59
2022-10-19T15:07:50.531Z,100902.06
2022-10-19T15:17:52.303Z,100891.41
2022-10-19T15:27:54.333Z,100883.88
2022-10-19T15:37:56.139Z,100859.94
2022-10-19T15:47:59.599Z,100871.00
2022-10-19T15:58:01.452Z,100859.84
2022-10-19T16:08:02.689Z,100856.06
2022-10-19T16:18:04.038Z,100850.44
2022-10-19T16:28:05.345Z,100856.59
2022-10-19T16:38:06.753Z,100855.16
2022-10-19T16:48:08.081Z,100855.81
2022-10-19T16:58:09.424Z,100852.56
2022-10-19T17:08:11.865Z,100858.00
2022-10-19T17:18:13.260Z,100850.38
2022-10-19T17:28:14.714Z,100871.97
2022-10-19T17:38:16.376Z,100850.44
2022-10-19T17:48:17.774Z,100848.06
2022-10-19T17:58:19.103Z,100848.28
2022-10-19T18:08:20.369Z,100851.38
2022-10-19T18:18:23.137Z,100875.50
2022-10-19T18:28:24.506Z,100860.81
2022-10-19T18:38:25.786Z,100858.59
2022-10-19T18:48:27.235Z,100849.16
2022-10-19T18:58:31.022Z,100830.03
2022-10-19T19:08:32.379Z,100821.66
2022-10-19T19:18:34.253Z,100811.19
2022-10-19T19:28:37.897Z,100795.72
2022-10-19T19:38:42.403Z,100787.16
2022-10-19T19:48:44.767Z,100796.81
2022-10-19T19:58:46.078Z,100770.59
2022-10-19T20:08:48.397Z,100779.38
2022-10-19T20:18:49.627Z,100781.09
2022-10-19T20:28:50.972Z,100779.44
2022-10-19T20:38:52.477Z,100777.00
2022-10-19T20:48:54.900Z,100775.31
2022-10-19T20:58:56.509Z,100760.50
2022-10-19T21:08:58.031Z,100766.66
2022-10-19T21:19:00.702Z,100759.72
2022-10-19T21:29:02.207Z,100746.03
2022-10-19T21:39:03.570Z,100753.84
2022-10-19T21:49:04.862Z,100739.09
2022-10-19T21:59:06.353Z,100736.66
2022-10-19T22:09:07.712Z,100715.50
2022-10-19T22:19:09.959Z,100702.53
2022-10-19T22:29:11.299Z,100701.69
2022-10-19T22:39:12.833Z,100678.16
2022-10-19T22:49:14.063Z,100678.19
2022-10-19T22:59:15.456Z,100645.06
2022-10-19T23:09:17.095Z,100642.66
2022-10-19T23:19:18.447Z,100624.25
2022-10-19T23:29:19.781Z,100606.84
2022-10-19T23:39:21.216Z,100617.47
2022-10-19T23:49:22.664Z,100607.06
2022-10-19T23:59:24.026Z,100622.97
